x

Nantucket Sound (44020) Wave Buoy

5:50 - Sun 20th Aug 2017 All times are EDT. -4 hours from GMT.

  • Sig Wave height 1.3ft
  • Swell Direction
  • Peak Period 4s
  • Average Period 3s
  • Wind
    7mph, 9mph gusts
  • Sea Temp 72°f
  • Air Temp 75°f
  • Sea Pressure 1015.6mb
  • Nantucket Sound
  • Nantucket Sound

More Historic Weather Station data

Upgrade to MSW Pro to gain access to the past 30 days of data for over 8000 Wavebouys and Weather Stations around the globe.

Join

Comparision Forecast

View Surf forecast
   
dim. 08/20 5:50 1.3ft 4s 3s 7 9 mph 1015.6mb 72f 75f
4:50 1.3ft 3s 3s 9 11 mph 1015.3mb 71f 73f
3:50 1.3ft 3s 3s 16 18 mph 1014.9mb 71f 73f
2:50 1ft 3s 3s 16 18 mph 1014.7mb 71f 72f
1:50 1ft 3s 4s 11 13 mph 1015mb 72f 73f
12:50 1.3ft 3s 3s 9 13 mph 1014.7mb 72f 74f
11:50 1.3ft 3s 3s 13 16 mph 1014.1mb 72f 74f
10:50 1ft 6s 4s 11 13 mph 1013.8mb 72f 73f
9:50 1ft 4s 4s 9 9 mph 1013.4mb 72f 73f
8:50 0.7ft  -  3s 11 13 mph 1013.2mb 72f 73f
7:50 0.7ft  -  3s 9 11 mph 1013.1mb 72f 72f
6:50 0.7ft  -  3s 11 13 mph 1012.4mb 71f 72f
5:50 1ft 2s 3s 11 13 mph 1012mb 71f 71f
4:50 1ft 3s 3s 11 13 mph 1011.4mb 70f 71f
3:50 1ft 3s 3s 11 13 mph 1011.2mb 69f 71f
2:50 1ft 3s 3s 11 13 mph 1011mb 69f 72f
12:50 1ft 3s 3s 13 16 mph 1011.5mb 71f 71f
sam. 08/19 11:50 1ft 3s 3s 13 16 mph 1011.3mb 72f 71f
10:50 1ft 7s 4s 13 16 mph 1010.9mb 72f 71f
9:50 1.3ft 6s 4s 13 16 mph 1010.6mb 72f 71f
8:50 1ft 6s 3s 13 16 mph 1010.3mb 72f 72f
7:50 1ft 3s 3s 13 16 mph 1009.9mb 72f 72f
6:50 1ft 6s 3s 13 18 mph 1009.5mb 72f 72f
5:50 1.3ft 7s 3s 16 16 mph 1009.3mb 72f 73f
4:50 1.3ft 3s 3s 13 16 mph 1009.2mb 71f 73f
3:50 1.3ft 2s 3s 16 18 mph 1009.2mb 71f 72f
2:50 1ft 2s 3s 13 16 mph 1009.2mb 71f 71f
1:50 1ft 5s 3s 11 11 mph 1009.5mb 71f 70f
12:50 1ft 7s 3s 11 11 mph 1009.9mb 71f 70f
11:50 1ft 7s 4s 9 11 mph 1009.9mb 72f 71f
10:50 1.3ft 4s 3s 9 11 mph 1009.9mb 72f 70f
9:50 1.3ft 4s 4s 11 13 mph 1009.6mb 71f 70f
8:50 1ft 3s 4s 13 16 mph 1009.2mb 71f 71f
7:50 1ft 3s 3s 11 13 mph 1008.8mb 71f 71f
6:50 1.3ft 3s 3s 11 13 mph 1008.5mb 71f 71f
5:50 1.6ft 3s 3s 16 20 mph 1008mb 71f 72f
4:50 2.5ft 3s 3s 16 20 mph 1007.9mb 71f 72f
3:50 2.5ft 3s 3s 20 27 mph 1007.8mb 70f 72f
2:50 2.5ft 4s 3s 22 29 mph 1008.5mb 69f 71f
1:50 3ft 4s 4s 25 31 mph 1007.8mb 69f 71f
12:50 3ft 4s 4s 27 34 mph 1008.4mb 70f 72f
ven. 08/18 11:50 3ft 4s 4s 29 36 mph 1009.6mb 71f 72f
10:50 2.5ft 4s 3s 27 34 mph 1010.1mb 71f 73f
9:50 2.5ft 4s 3s 25 29 mph 1010.8mb 71f 73f
8:50 2.5ft 4s 3s 22 27 mph 1011.4mb 71f 73f
7:50 2ft 4s 3s 20 25 mph 1011.7mb 71f 73f
6:50 2ft 4s 3s 22 25 mph 1011.5mb 71f 73f
5:50 2ft 4s 3s 20 22 mph 1011.7mb 71f 73f
4:50 2ft 4s 3s 18 20 mph 1011.7mb 71f 72f
3:50 2ft 3s 3s 20 25 mph 1012.1mb 70f 72f
2:50 2ft 3s 3s 20 25 mph 1012.6mb 70f 72f
1:50 1.6ft 3s 3s 20 22 mph 1013.3mb 70f 72f
12:50 1.3ft 3s 3s 18 20 mph 1014.3mb 71f 71f
11:50 1.3ft 3s 3s 18 20 mph 1014.6mb 71f 71f
10:50 1.3ft 3s 3s 16 18 mph 1014.7mb 71f 72f
9:50 1.3ft 3s 3s 13 18 mph 1015mb 71f 71f
8:50 1ft 3s 3s 13 18 mph 1015.2mb 71f 70f
7:50 1ft 3s 3s 13 16 mph 1015.5mb 71f 70f
6:50 0.7ft  -  3s 13 16 mph 1015.2mb 71f 69f
5:50 0.7ft  -  3s 13 13 mph 1015.3mb 71f 69f
4:50 0.3ft  -  3s 11 13 mph 1015.2mb 71f 69f
3:50 0.7ft  -  3s 9 11 mph 1015.6mb 71f 69f
2:50 0.7ft  -  4s 9 11 mph 1015.9mb 70f 68f
1:50 0.7ft  -  3s 7 9 mph 1016mb 69f 69f
12:50 0.7ft  -  3s 9 11 mph 1016.6mb 69f 69f
jeu. 08/17 11:50 0.7ft  -  3s 11 13 mph 1016.6mb 70f 68f
10:50 0.7ft  -  3s 11 13 mph 1016.5mb 71f 69f
9:50 1ft 3s 3s 9 11 mph 1016.7mb 71f 69f
8:50 1ft 8s 3s 11 13 mph 1016.3mb 72f 68f
7:50 1ft 8s 3s 11 13 mph 1015.8mb 72f 68f
6:50 1ft 4s 3s 9 11 mph 1015.8mb 72f 69f
5:50 1ft 4s 4s 13 16 mph 1015.8mb 72f 69f
4:50 0.7ft  -  3s 13 13 mph 1016.1mb 72f 69f
3:50 0.7ft  -  4s 11 13 mph 1016.3mb 72f 70f
2:50 1ft 4s 4s 7 9 mph 1016.8mb 72f 71f
1:50 1ft 5s 4s 4 4 mph 1017.3mb 71f 70f
12:50 1ft 4s 4s 2 2 mph 1017.6mb 71f 69f
11:50 0.7ft  -  4s  -  0 mph 1017.8mb 71f 69f
10:50 1ft 5s 4s 4 4 mph 1018.1mb 71f 69f
9:50 0.7ft  -  4s 7 9 mph 1017.9mb 71f 69f
8:50 1ft 5s 4s 4 7 mph 1017.8mb 71f 69f
7:50 1ft 11s 3s 7 9 mph 1017.7mb 71f 69f
6:50 1.3ft 3s 3s 9 11 mph 1017.2mb 71f 69f
5:50 1.3ft 3s 3s 13 16 mph 1016.6mb 71f 69f
4:50 1.6ft 3s 3s 16 18 mph 1016.1mb 71f 69f
3:50 1.3ft 3s 3s 16 18 mph 1015.8mb 71f 71f
2:50 0.7ft  -  4s 13 18 mph 1015.6mb 70f 71f
1:50 0.7ft  -  4s 2 4 mph 1015.9mb 70f 70f
12:50 0.7ft  -  4s 4 4 mph 1015.9mb 69f 68f
mer. 08/16 11:50 0.7ft  -  4s 2 4 mph 1015.9mb 70f 70f